Time,TemperatureF,DewpointF,PressureIn,WindDirection,WindDirectionDegrees,WindSpeedMPH,WindSpeedGustMPH,Humidity,HourlyPrecipIn,Conditions,Clouds,dailyrainin,SoftwareType,DateUTC
2013-04-26 00:03:00,43.3,41.0,30.19,North,354,0.0,0.0,92,0.00,,,0.00,weatherlink.com 1.10,2013-04-26 07:03:00,
2013-04-26 00:18:00,42.5,41.0,30.19,North,354,0.0,0.0,93,0.00,,,0.00,weatherlink.com 1.10,2013-04-26 07:18:00,
2013-04-26 00:33:00,41.8,40.0,30.19,North,354,0.0,0.0,94,0.00,,,0.00,weatherlink.com 1.10,2013-04-26 07:33:00,
2013-04-26 00:48:00,41.4,40.0,30.20,North,354,0.0,0.0,94,0.00,,,0.00,weatherlink.com 1.10,2013-04-26 07:48:00,
2013-04-26 01:03:00,40.9,40.0,30.20,North,354,0.0,0.0,95,0.00,,,0.00,weatherlink.com 1.10,2013-04-26 08:03:00,
2013-04-26 01:18:00,40.6,39.0,30.20,North,354,0.0,0.0,95,0.00,,,0.00,weatherlink.com 1.10,2013-04-26 08:18:00,
2013-04-26 01:33:00,39.9,39.0,30.20,North,354,0.0,0.0,95,0.00,,,0.00,weatherlink.com 1.10,2013-04-26 08:33:00,
2013-04-26 01:48:00,39.5,39.0,30.21,North,354,0.0,0.0,96,0.00,,,0.00,weatherlink.com 1.10,2013-04-26 08:48:00,
2013-04-26 02:03:00,39.1,38.0,30.22,North,354,0.0,0.0,96,0.00,,,0.00,weatherlink.com 1.10,2013-04-26 09:03:00,
2013-04-26 02:19:00,38.6,38.0,30.22,North,354,0.0,0.0,96,0.00,,,0.00,weatherlink.com 1.10,2013-04-26 09:19:00,
2013-04-26 02:34:00,38.2,37.0,30.21,North,354,0.0,0.0,96,0.00,,,0.00,weatherlink.com 1.10,2013-04-26 09:34:00,
2013-04-26 02:49:00,37.6,37.0,30.22,North,354,0.0,0.0,96,0.00,,,0.00,weatherlink.com 1.10,2013-04-26 09:49:00,
2013-04-26 03:04:00,37.5,37.0,30.21,North,354,0.0,0.0,97,0.00,,,0.00,weatherlink.com 1.10,2013-04-26 10:04:00,
2013-04-26 03:19:00,36.8,36.0,30.22,North,354,0.0,0.0,96,0.00,,,0.00,weatherlink.com 1.10,2013-04-26 10:19:00,
2013-04-26 03:34:00,36.7,36.0,30.22,North,354,0.0,0.0,97,0.00,,,0.00,weatherlink.com 1.10,2013-04-26 10:34:00,
2013-04-26 03:49:00,37.4,37.0,30.21,North,354,0.0,0.0,97,0.00,,,0.00,weatherlink.com 1.10,2013-04-26 10:49:00,
2013-04-26 04:04:00,37.8,37.0,30.22,North,352,0.0,0.0,97,0.00,,,0.00,weatherlink.com 1.10,2013-04-26 11:04:00,
2013-04-26 04:19:00,38.8,38.0,30.23,North,353,0.0,0.0,98,0.00,,,0.00,weatherlink.com 1.10,2013-04-26 11:19:00,
2013-04-26 04:34:00,39.7,39.0,30.23,North,353,0.0,0.0,98,0.00,,,0.00,weatherlink.com 1.10,2013-04-26 11:34:00,
2013-04-26 04:49:00,40.2,40.0,30.23,North,353,0.0,0.0,98,0.00,,,0.00,weatherlink.com 1.10,2013-04-26 11:49:00,
2013-04-26 05:04:00,40.7,40.0,30.23,North,353,0.0,0.0,98,0.00,,,0.00,weatherlink.com 1.10,2013-04-26 12:04:00,
2013-04-26 05:19:00,40.7,40.0,30.23,North,353,0.0,0.0,98,0.00,,,0.00,weatherlink.com 1.10,2013-04-26 12:19:00,
2013-04-26 05:34:00,40.3,40.0,30.23,West,280,0.0,0.0,97,0.00,,,0.00,weatherlink.com 1.10,2013-04-26 12:34:00,
2013-04-26 05:49:00,40.1,39.0,30.23,West,280,0.0,0.0,97,0.00,,,0.00,weatherlink.com 1.10,2013-04-26 12:49:00,
2013-04-26 06:04:00,39.9,39.0,30.23,West,280,0.0,0.0,97,0.00,,,0.00,weatherlink.com 1.10,2013-04-26 13:04:00,
2013-04-26 06:19:00,39.4,39.0,30.24,West,281,0.0,0.0,97,0.00,,,0.00,weatherlink.com 1.10,2013-04-26 13:19:00,
2013-04-26 06:34:00,39.2,39.0,30.25,West,281,0.0,0.0,97,0.00,,,0.00,weatherlink.com 1.10,2013-04-26 13:34:00,
2013-04-26 06:49:00,39.5,39.0,30.25,NE,36,0.0,0.0,98,0.00,,,0.00,weatherlink.com 1.10,2013-04-26 13:49:00,
2013-04-26 07:04:00,40.0,40.0,30.26,ENE,77,0.0,0.0,98,0.00,,,0.00,weatherlink.com 1.10,2013-04-26 14:04:00,
2013-04-26 07:19:00,40.6,40.0,30.25,ENE,58,0.0,0.0,98,0.00,,,0.00,weatherlink.com 1.10,2013-04-26 14:19:00,
2013-04-26 07:34:00,41.1,41.0,30.26,North,7,0.0,0.0,98,0.00,,,0.00,weatherlink.com 1.10,2013-04-26 14:34:00,
2013-04-26 07:49:00,41.2,41.0,30.27,ENE,63,0.0,0.0,98,0.00,,,0.00,weatherlink.com 1.10,2013-04-26 14:49:00,
2013-04-26 08:04:00,41.5,41.0,30.27,NNE,33,0.0,0.0,98,0.00,,,0.00,weatherlink.com 1.10,2013-04-26 15:04:00,
2013-04-26 08:19:00,42.4,42.0,30.27,SW,229,0.0,0.0,98,0.00,,,0.00,weatherlink.com 1.10,2013-04-26 15:19:00,
2013-04-26 08:34:00,42.6,42.0,30.27,North,7,0.0,0.0,98,0.00,,,0.00,weatherlink.com 1.10,2013-04-26 15:34:00,
2013-04-26 08:49:00,43.5,43.0,30.27,SW,231,0.0,0.0,98,0.00,,,0.00,weatherlink.com 1.10,2013-04-26 15:49:00,
2013-04-26 09:04:00,43.5,43.0,30.27,WSW,256,0.0,0.0,98,0.00,,,0.00,weatherlink.com 1.10,2013-04-26 16:04:00,
2013-04-26 09:19:00,44.0,44.0,30.27,SW,217,0.0,0.0,98,0.00,,,0.00,weatherlink.com 1.10,2013-04-26 16:19:00,
2013-04-26 09:34:00,44.6,44.0,30.27,WNW,288,0.0,0.0,98,0.00,,,0.00,weatherlink.com 1.10,2013-04-26 16:34:00,
2013-04-26 09:49:00,45.2,45.0,30.26,SW,215,0.0,0.0,98,0.00,,,0.00,weatherlink.com 1.10,2013-04-26 16:49:00,
2013-04-26 10:04:00,46.0,45.0,30.27,SSE,167,0.0,0.0,97,0.00,,,0.00,weatherlink.com 1.10,2013-04-26 17:04:00,
2013-04-26 10:19:00,47.1,46.0,30.27,SSW,212,0.0,0.0,95,0.00,,,0.00,weatherlink.com 1.10,2013-04-26 17:19:00,
2013-04-26 10:34:00,48.0,46.0,30.26,WSW,240,0.0,0.0,94,0.00,,,0.00,weatherlink.com 1.10,2013-04-26 17:34:00,
2013-04-26 10:50:00,50.8,48.0,30.26,SSW,209,0.0,0.0,90,0.00,,,0.00,weatherlink.com 1.10,2013-04-26 17:50:00,
2013-04-26 11:05:00,53.7,50.0,30.26,West,262,0.0,0.0,86,0.00,,,0.00,weatherlink.com 1.10,2013-04-26 18:05:00,
2013-04-26 11:20:00,55.6,49.0,30.26,NE,41,0.0,3.0,78,0.00,,,0.00,weatherlink.com 1.10,2013-04-26 18:20:00,
2013-04-26 11:35:00,58.5,50.0,30.26,WSW,257,0.0,2.0,73,0.00,,,0.00,weatherlink.com 1.10,2013-04-26 18:35:00,
2013-04-26 11:50:00,60.8,48.0,30.26,NNW,341,0.0,3.0,64,0.00,,,0.00,weatherlink.com 1.10,2013-04-26 18:50:00,
2013-04-26 12:05:00,63.0,49.0,30.25,SSE,161,0.0,0.0,60,0.00,,,0.00,weatherlink.com 1.10,2013-04-26 19:05:00,
2013-04-26 12:20:00,66.5,49.0,30.25,SSE,155,0.0,0.0,54,0.00,,,0.00,weatherlink.com 1.10,2013-04-26 19:20:00,
2013-04-26 12:35:00,66.3,47.0,30.25,West,281,0.0,0.0,51,0.00,,,0.00,weatherlink.com 1.10,2013-04-26 19:35:00,
2013-04-26 12:50:00,68.5,48.0,30.25,WNW,290,0.0,1.0,48,0.00,,,0.00,weatherlink.com 1.10,2013-04-26 19:50:00,
2013-04-26 13:05:00,68.3,48.0,30.25,NW,309,0.0,2.0,49,0.00,,,0.00,weatherlink.com 1.10,2013-04-26 20:05:00,
2013-04-26 13:20:00,68.8,50.0,30.25,West,268,0.0,3.0,51,0.00,,,0.00,weatherlink.com 1.10,2013-04-26 20:20:00,
2013-04-26 13:35:00,69.6,49.0,30.25,SSW,195,0.0,4.0,48,0.00,,,0.00,weatherlink.com 1.10,2013-04-26 20:35:00,
2013-04-26 13:50:00,70.8,49.0,30.25,ENE,73,0.0,5.0,47,0.00,,,0.00,weatherlink.com 1.10,2013-04-26 20:50:00,
2013-04-26 14:05:00,70.5,50.0,30.24,WNW,302,0.0,3.0,49,0.00,,,0.00,weatherlink.com 1.10,2013-04-26 21:05:00,
2013-04-26 14:20:00,71.8,49.0,30.24,ENE,61,0.0,5.0,45,0.00,,,0.00,weatherlink.com 1.10,2013-04-26 21:20:00,
2013-04-26 14:35:00,72.0,47.0,30.24,NW,319,0.0,5.0,41,0.00,,,0.00,weatherlink.com 1.10,2013-04-26 21:35:00,
2013-04-26 14:50:00,73.2,47.0,30.24,NE,34,1.0,3.0,39,0.00,,,0.00,weatherlink.com 1.10,2013-04-26 21:50:00,
2013-04-26 15:05:00,73.5,43.0,30.23,NW,318,0.0,5.0,33,0.00,,,0.00,weatherlink.com 1.10,2013-04-26 22:05:00,
2013-04-26 15:20:00,74.6,39.0,30.23,North,357,0.0,6.0,28,0.00,,,0.00,weatherlink.com 1.10,2013-04-26 22:20:00,
2013-04-26 15:35:00,74.9,37.0,30.23,NW,312,2.0,4.0,25,0.00,,,0.00,weatherlink.com 1.10,2013-04-26 22:35:00,
2013-04-26 15:50:00,75.2,36.0,30.23,NE,39,0.0,5.0,24,0.00,,,0.00,weatherlink.com 1.10,2013-04-26 22:50:00,
2013-04-26 16:05:00,75.6,35.0,30.22,WSW,257,0.0,4.0,23,0.00,,,0.00,weatherlink.com 1.10,2013-04-26 23:05:00,
2013-04-26 16:21:00,75.8,34.0,30.21,West,267,0.0,3.0,22,0.00,,,0.00,weatherlink.com 1.10,2013-04-26 23:21:00,
2013-04-26 16:36:00,75.3,33.0,30.21,WNW,300,0.0,5.0,21,0.00,,,0.00,weatherlink.com 1.10,2013-04-26 23:36:00,
2013-04-26 16:51:00,74.9,35.0,30.20,WNW,295,0.0,2.0,23,0.00,,,0.00,weatherlink.com 1.10,2013-04-26 23:51:00,
2013-04-26 17:06:00,74.4,32.0,30.20,NW,304,2.0,3.0,21,0.00,,,0.00,weatherlink.com 1.10,2013-04-27 00:06:00,
2013-04-26 17:21:00,74.2,32.0,30.20,NW,318,0.0,4.0,21,0.00,,,0.00,weatherlink.com 1.10,2013-04-27 00:21:00,
2013-04-26 17:36:00,74.2,32.0,30.20,WNW,290,3.0,6.0,21,0.00,,,0.00,weatherlink.com 1.10,2013-04-27 00:36:00,
2013-04-26 17:51:00,74.0,32.0,30.20,NW,310,0.0,6.0,21,0.00,,,0.00,weatherlink.com 1.10,2013-04-27 00:51:00,
2013-04-26 18:06:00,73.3,33.0,30.20,West,266,0.0,4.0,23,0.00,,,0.00,weatherlink.com 1.10,2013-04-27 01:06:00,
2013-04-26 18:21:00,72.9,34.0,30.20,WSW,253,0.0,1.0,24,0.00,,,0.00,weatherlink.com 1.10,2013-04-27 01:21:00,
2013-04-26 18:36:00,72.1,34.0,30.20,West,260,0.0,5.0,25,0.00,,,0.00,weatherlink.com 1.10,2013-04-27 01:36:00,
2013-04-26 18:51:00,70.4,33.0,30.20,SE,141,0.0,3.0,25,0.00,,,0.00,weatherlink.com 1.10,2013-04-27 01:51:00,
2013-04-26 19:06:00,70.7,36.0,30.20,ESE,120,0.0,0.0,28,0.00,,,0.00,weatherlink.com 1.10,2013-04-27 02:06:00,
2013-04-26 19:21:00,69.0,36.0,30.21,NW,314,0.0,4.0,30,0.00,,,0.00,weatherlink.com 1.10,2013-04-27 02:21:00,
2013-04-26 19:36:00,67.1,36.0,30.21,WNW,290,0.0,7.0,32,0.00,,,0.00,weatherlink.com 1.10,2013-04-27 02:36:00,
2013-04-26 19:51:00,64.9,34.0,30.22,NW,304,0.0,5.0,32,0.00,,,0.00,weatherlink.com 1.10,2013-04-27 02:51:00,
2013-04-26 20:06:00,63.0,32.0,30.22,West,274,0.0,2.0,31,0.00,,,0.00,weatherlink.com 1.10,2013-04-27 03:06:00,
2013-04-26 20:21:00,61.6,33.0,30.22,WNW,293,0.0,5.0,34,0.00,,,0.00,weatherlink.com 1.10,2013-04-27 03:21:00,
2013-04-26 20:36:00,60.1,35.0,30.22,East,98,0.0,0.0,39,0.00,,,0.00,weatherlink.com 1.10,2013-04-27 03:36:00,
2013-04-26 20:51:00,59.1,36.0,30.22,West,281,0.0,3.0,43,0.00,,,0.00,weatherlink.com 1.10,2013-04-27 03:51:00,
2013-04-26 21:06:00,57.6,37.0,30.23,West,275,0.0,0.0,46,0.00,,,0.00,weatherlink.com 1.10,2013-04-27 04:06:00,
2013-04-26 21:21:00,56.1,38.0,30.23,West,274,0.0,0.0,51,0.00,,,0.00,weatherlink.com 1.10,2013-04-27 04:21:00,
2013-04-26 21:36:00,53.4,39.0,30.23,West,274,0.0,0.0,59,0.00,,,0.00,weatherlink.com 1.10,2013-04-27 04:36:00,
2013-04-26 21:51:00,51.4,40.0,30.23,West,274,0.0,0.0,66,0.00,,,0.00,weatherlink.com 1.10,2013-04-27 04:51:00,
2013-04-26 22:06:00,49.7,40.0,30.24,West,274,0.0,0.0,69,0.00,,,0.00,weatherlink.com 1.10,2013-04-27 05:06:00,
2013-04-26 22:21:00,48.1,40.0,30.24,West,274,0.0,0.0,73,0.00,,,0.00,weatherlink.com 1.10,2013-04-27 05:21:00,
2013-04-26 22:36:00,47.0,40.0,30.24,West,274,0.0,0.0,77,0.00,,,0.00,weatherlink.com 1.10,2013-04-27 05:36:00,
2013-04-26 22:51:00,45.8,40.0,30.25,West,274,0.0,0.0,80,0.00,,,0.00,weatherlink.com 1.10,2013-04-27 05:51:00,
2013-04-26 23:06:00,45.1,40.0,30.25,West,275,0.0,0.0,82,0.00,,,0.00,weatherlink.com 1.10,2013-04-27 06:06:00,
2013-04-26 23:21:00,44.5,40.0,30.25,West,275,0.0,0.0,83,0.00,,,0.00,weatherlink.com 1.10,2013-04-27 06:21:00,
2013-04-26 23:36:00,43.9,40.0,30.25,West,275,0.0,0.0,85,0.00,,,0.00,weatherlink.com 1.10,2013-04-27 06:36:00,
2013-04-26 23:51:00,43.6,40.0,30.25,West,275,0.0,0.0,86,0.00,,,0.00,weatherlink.com 1.10,2013-04-27 06:51:00,